Huntsville

Airport
ICAO code: 
KHSV
Summary
ICAO Region: 
NAM
Territory: 
Location: 
Huntsville, Alabama,
Elevation: 
629 ft
Coordinates: 
Aerial View: 
34° 38' 13.918" N, 86° 46' 30.363" W
Airport LOS: 
Parallel Runway Operation
Metar
Observation
KHSV 292053Z 30005KT 10SM FEW250 12/M08 A3016 RMK AO2 SLP215 T01171078 56013
Station
Huntsville, Huntsville International / Jones Field
Date/Time
2021-11-29 20:53:00
Wind direction
300°
Wind speed
05 kts
Lowest cloud amount
few clouds
Temperature
11.7°C
Dew point
-7.8°C
Humidity
24%
Weather condition
n/a

Description

Huntsville International Airport, also known as Carl T. Jones Field, is an airport located 14 km southwest of the central business district of Huntsville, a city in Madison County, Alabama, United States.

Climatology

Humid “subtropical” climate (Köppen climate classification Cfa) - characterized by hot, humid summers and cool winters. Significant amounts of precipitation occur in all seasons in most areas. Winter rainfall (and sometimes snowfall) is associated with large storms that the westerlies steer from west to east. Most summer rainfall occurs during thunderstorms and occasional tropical storms (hurricanes).

Runways

Designator Length Width Surface Rops
18L/36R 3050 46 ASP Yes/Yes
18R/36L 3840 46 ASP Yes/Yes
Airport map: 
Aerial View: 

SKYbrary Partners:

Safety knowledge contributed by: